Time;durP1;ratioP1;P1;durP2;ratioP2;P2;SDS_P1;SDS_P2;PMS_P1;PMS_P2;Temp;Humidity;BMP_temperature;BMP_pressure;BME280_temperature;BME280_humidity;BME280_pressure;Samples;Min_cycle;Max_cycle;Signal;HPM_P1;HPM_P2
2022/10/16 00:01:13;;;;;;;;;5.33;5.33;;;;;17.30;79.19;99937.47;5055375;28;45490;-71
2022/10/16 00:03:40;;;;;;;;;5.00;5.00;;;;;17.25;79.41;99912.00;5057242;28;45444;-70
2022/10/16 00:06:07;;;;;;;;;7.00;6.00;;;;;17.30;79.24;99910.19;5055783;28;45386;-71
2022/10/16 00:08:33;;;;;;;;;6.00;4.67;;;;;17.44;79.09;99933.84;5055920;28;45291;-71
2022/10/16 00:11:05;;;;;;;;;5.00;5.00;;;;;17.37;78.93;99906.63;5055657;28;46207;-71
2022/10/16 00:13:33;;;;;;;;;8.00;7.00;;;;;17.31;79.01;99896.13;5067711;28;45468;-71
2022/10/16 00:15:59;;;;;;;;;4.00;4.00;;;;;17.40;79.14;99905.72;5066481;27;45551;-71
2022/10/16 00:18:26;;;;;;;;;6.00;5.67;;;;;17.52;79.16;99920.59;5067767;28;45567;-71
2022/10/16 00:20:52;;;;;;;;;4.00;4.00;;;;;17.42;78.73;99912.72;5071491;28;47916;-71
2022/10/16 00:23:18;;;;;;;;;5.00;5.00;;;;;17.15;78.68;99876.88;5057721;27;45449;-72
2022/10/16 00:25:43;;;;;;;;;6.00;6.00;;;;;17.44;78.54;99918.88;5055552;28;45519;-71
2022/10/16 00:28:09;;;;;;;;;5.67;5.67;;;;;17.38;78.89;99911.00;5070695;28;45528;-71
2022/10/16 00:30:38;;;;;;;;;6.00;5.67;;;;;17.30;78.66;99903.13;5055242;28;45515;-71
2022/10/16 00:33:03;;;;;;;;;7.00;6.00;;;;;17.44;78.51;99929.44;5055086;28;45486;-71
2022/10/16 00:35:30;;;;;;;;;7.33;7.00;;;;;17.46;78.52;99918.88;5056562;28;45203;-71
2022/10/16 00:37:55;;;;;;;;;5.00;5.00;;;;;17.49;78.51;99906.53;5091158;27;45364;-71
2022/10/16 00:40:21;;;;;;;;;7.33;7.33;;;;;17.40;78.69;99879.31;5055955;28;45464;-71
2022/10/16 00:42:46;;;;;;;;;5.67;5.67;;;;;17.57;78.61;99910.88;5072045;28;46270;-71
2022/10/16 00:45:12;;;;;;;;;5.33;5.00;;;;;17.56;78.59;99906.47;5056119;28;45384;-71
2022/10/16 00:47:47;;;;;;;;;7.67;6.67;;;;;17.51;78.39;99909.16;5056445;28;45401;-71
2022/10/16 00:50:26;;;;;;;;;8.00;7.00;;;;;17.42;77.85;99890.75;5056676;28;46263;-71
2022/10/16 00:52:53;;;;;;;;;9.00;7.00;;;;;17.47;78.18;99896.88;5055368;28;45451;-71
2022/10/16 00:55:19;;;;;;;;;9.33;8.67;;;;;17.59;77.82;99909.09;5055701;28;45442;-71
2022/10/16 00:57:45;;;;;;;;;11.67;11.33;;;;;17.45;77.99;99901.28;5070093;28;45733;-71
2022/10/16 01:00:17;;;;;;;;;14.00;13.00;;;;;17.48;78.44;99919.72;5067019;28;46059;-71
2022/10/16 01:02:42;;;;;;;;;9.00;8.33;;;;;17.36;78.33;99917.19;5057059;28;45588;-71
2022/10/16 01:05:09;;;;;;;;;5.00;5.00;;;;;17.32;77.96;99912.81;5059069;28;45464;-71
2022/10/16 01:07:49;;;;;;;;;8.00;7.00;;;;;17.26;78.06;99913.75;5068148;28;45314;-72
2022/10/16 01:10:35;;;;;;;;;6.67;6.67;;;;;17.23;78.57;99916.41;5071518;28;46196;-71
2022/10/16 01:13:07;;;;;;;;;10.33;9.67;;;;;17.28;78.67;99906.69;5073330;28;45453;-72
2022/10/16 01:15:57;;;;;;;;;13.00;10.33;;;;;17.33;78.69;99914.56;5071985;27;45520;-71
2022/10/16 01:18:41;;;;;;;;;6.33;6.33;;;;;17.35;78.82;99907.50;5060658;28;45426;-71
2022/10/16 01:21:21;;;;;;;;;8.00;7.67;;;;;17.30;78.58;99911.06;5071229;27;46074;-71
2022/10/16 01:24:06;;;;;;;;;8.00;8.00;;;;;17.27;78.83;99913.75;5065039;28;45482;-72
2022/10/16 01:27:09;;;;;;;;;11.00;11.00;;;;;17.28;78.62;99907.56;5072974;28;45860;-71
2022/10/16 01:29:53;;;;;;;;;9.00;9.00;;;;;17.31;78.67;99911.97;5070468;27;45311;-73
2022/10/16 01:32:45;;;;;;;;;8.67;8.67;;;;;17.29;78.82;99909.31;5070624;28;45326;-73
2022/10/16 01:35:17;;;;;;;;;10.00;9.00;;;;;17.32;78.99;99908.41;5063506;28;45541;-73
2022/10/16 01:38:17;;;;;;;;;7.00;6.00;;;;;17.36;78.51;99904.84;5064416;28;45434;-73
2022/10/16 01:40:48;;;;;;;;;10.00;9.33;;;;;17.30;78.43;99889.06;5062203;28;45437;-73
2022/10/16 01:43:29;;;;;;;;;8.67;8.33;;;;;17.38;79.11;99902.22;5065440;28;45451;-73
2022/10/16 01:45:55;;;;;;;;;9.67;9.00;;;;;17.20;78.92;99874.19;5071190;28;45551;-72
2022/10/16 01:48:23;;;;;;;;;10.00;8.33;;;;;17.24;78.76;99871.50;5073398;28;45430;-73
2022/10/16 01:50:57;;;;;;;;;7.00;7.00;;;;;17.38;78.75;99894.28;5072486;28;45480;-72
2022/10/16 01:53:24;;;;;;;;;9.33;8.33;;;;;17.39;78.69;99888.09;5072162;28;45593;-72
2022/10/16 01:55:55;;;;;;;;;9.00;8.00;;;;;17.46;78.80;99905.66;5063613;27;45287;-72
2022/10/16 01:58:24;;;;;;;;;8.33;8.00;;;;;17.44;79.11;99894.25;5061763;28;45584;-72
2022/10/16 02:00:50;;;;;;;;;8.00;8.00;;;;;17.38;79.17;99886.38;5064698;28;45503;-72
2022/10/16 02:03:19;;;;;;;;;8.67;8.33;;;;;17.38;79.08;99897.81;5063414;28;45481;-72
2022/10/16 02:05:50;;;;;;;;;14.33;14.00;;;;;17.35;79.44;99903.13;5071192;28;45484;-72
2022/10/16 02:08:16;;;;;;;;;9.33;9.33;;;;;17.28;79.01;99904.91;5061912;28;45530;-72
2022/10/16 02:10:41;;;;;;;;;10.67;10.00;;;;;17.17;79.34;99887.41;5065596;28;45322;-72
2022/10/16 02:13:21;;;;;;;;;23.33;21.33;;;;;17.21;79.21;99892.66;5064987;28;46356;-72
2022/10/16 02:15:47;;;;;;;;;17.33;15.33;;;;;17.28;79.40;99897.00;5066441;28;45483;-73
2022/10/16 02:18:14;;;;;;;;;15.00;14.00;;;;;17.29;79.43;99888.19;5063461;28;45468;-72
2022/10/16 02:20:51;;;;;;;;;14.67;14.00;;;;;17.26;79.39;99876.78;5071000;27;45416;-72
2022/10/16 02:23:24;;;;;;;;;10.00;10.00;;;;;17.37;79.19;99893.44;5063894;28;45373;-72
2022/10/16 02:25:52;;;;;;;;;12.00;11.00;;;;;17.28;79.07;99861.81;5066971;28;45441;-72
2022/10/16 02:28:25;;;;;;;;;15.00;13.00;;;;;17.33;79.51;99869.69;5069567;28;45399;-72
2022/10/16 02:31:00;;;;;;;;;10.67;10.00;;;;;17.10;79.35;99823.25;5071774;28;45379;-73
2022/10/16 02:33:28;;;;;;;;;8.00;7.33;;;;;17.37;79.18;99856.47;5064024;27;45715;-72
2022/10/16 02:35:55;;;;;;;;;11.00;11.00;;;;;17.41;79.33;99859.97;5064105;28;45702;-72
2022/10/16 02:38:22;;;;;;;;;10.00;10.00;;;;;17.47;79.38;99868.69;5062613;28;45436;-72
2022/10/16 02:40:48;;;;;;;;;8.33;8.00;;;;;17.37;79.49;99848.53;5069553;28;46590;-72
2022/10/16 02:43:15;;;;;;;;;9.33;9.33;;;;;17.48;79.45;99853.72;5073571;28;46861;-72
2022/10/16 02:45:40;;;;;;;;;8.67;7.33;;;;;17.44;79.14;99855.50;5066995;28;45575;-72
2022/10/16 02:48:06;;;;;;;;;9.00;8.00;;;;;17.54;79.23;99863.34;5072414;28;45328;-73
2022/10/16 02:50:31;;;;;;;;;7.00;7.00;;;;;17.48;79.05;99851.94;5068064;28;45281;-72
2022/10/16 02:52:57;;;;;;;;;8.33;7.00;;;;;17.47;78.97;99844.06;5070826;28;46810;-73
2022/10/16 02:55:23;;;;;;;;;9.00;8.00;;;;;17.58;78.97;99865.06;5061206;28;45390;-72
2022/10/16 02:57:48;;;;;;;;;9.00;9.00;;;;;17.47;78.97;99849.34;5095230;27;45701;-72
2022/10/16 03:00:16;;;;;;;;;8.33;8.33;;;;;17.48;79.13;99854.59;5067048;28;45355;-72
2022/10/16 03:02:42;;;;;;;;;7.00;6.33;;;;;17.54;79.08;99863.34;5068030;28;46276;-73
2022/10/16 03:05:08;;;;;;;;;8.00;7.67;;;;;17.41;79.06;99838.84;5061261;28;45338;-72
2022/10/16 03:07:34;;;;;;;;;8.00;8.00;;;;;17.52;78.40;99860.72;5067292;28;45888;-72
2022/10/16 03:10:00;;;;;;;;;9.33;8.33;;;;;17.42;78.88;99838.78;5058614;28;45558;-72
2022/10/16 03:12:28;;;;;;;;;6.67;6.67;;;;;17.52;78.61;99847.50;5069259;28;45655;-73
2022/10/16 03:14:56;;;;;;;;;6.33;6.00;;;;;17.38;78.88;99820.38;5072720;28;45575;-73
2022/10/16 03:17:22;;;;;;;;;8.00;7.00;;;;;17.40;78.70;99823.88;5086577;27;45546;-73
2022/10/16 03:19:47;;;;;;;;;8.33;8.00;;;;;17.39;79.06;99828.28;5057747;28;45718;-72
2022/10/16 03:22:13;;;;;;;;;9.00;8.00;;;;;17.52;78.92;99842.22;5074152;28;45520;-73
2022/10/16 03:24:38;;;;;;;;;8.00;7.00;;;;;17.50;78.81;99829.03;5077944;28;45603;-73
2022/10/16 03:27:04;;;;;;;;;5.00;5.00;;;;;17.59;78.63;99835.16;5094730;27;45486;-72
2022/10/16 03:29:29;;;;;;;;;4.33;4.33;;;;;17.54;78.11;99829.03;5078428;27;45566;-72
2022/10/16 03:31:56;;;;;;;;;7.00;7.00;;;;;17.66;76.96;99842.09;5078584;27;45922;-78
2022/10/16 03:34:22;;;;;;;;;9.00;8.00;;;;;17.69;77.35;99844.72;5094088;27;45445;-73
2022/10/16 03:36:47;;;;;;;;;7.67;7.00;;;;;17.62;77.09;99827.16;5078076;27;45504;-72
2022/10/16 03:39:13;;;;;;;;;9.00;8.00;;;;;17.65;76.89;99829.78;5078515;28;45345;-73
2022/10/16 03:41:39;;;;;;;;;5.67;5.00;;;;;17.73;76.74;99835.00;5078326;28;45394;-73
2022/10/16 03:44:05;;;;;;;;;6.00;5.67;;;;;17.72;76.31;99831.47;5094422;27;45554;-72
2022/10/16 03:46:30;;;;;;;;;5.67;4.67;;;;;17.70;75.65;99823.53;5078543;28;45304;-72
2022/10/16 03:48:56;;;;;;;;;7.00;6.00;;;;;17.83;75.08;99829.63;5078544;28;45473;-73
2022/10/16 03:51:21;;;;;;;;;4.33;4.33;;;;;17.86;75.15;99829.56;5077671;27;46339;-72
2022/10/16 03:53:47;;;;;;;;;5.33;4.67;;;;;17.96;74.17;99840.91;5093680;27;45274;-72
2022/10/16 03:56:12;;;;;;;;;6.00;6.00;;;;;17.98;73.85;99843.53;5073166;27;45451;-73
2022/10/16 03:58:38;;;;;;;;;6.33;6.00;;;;;17.88;74.78;99834.84;5056946;28;45484;-73
2022/10/16 04:01:03;;;;;;;;;4.67;4.67;;;;;18.04;74.67;99859.31;5073093;27;46057;-73
2022/10/16 04:03:29;;;;;;;;;6.33;6.00;;;;;17.99;74.13;99842.66;5076938;27;45583;-73
2022/10/16 04:05:54;;;;;;;;;5.67;4.00;;;;;18.07;74.27;99851.38;5074424;27;45559;-71
2022/10/16 04:08:20;;;;;;;;;8.00;7.67;;;;;18.15;73.08;99857.44;5057140;28;45405;-73
2022/10/16 04:10:46;;;;;;;;;7.67;7.33;;;;;18.23;72.22;99857.34;5088953;27;45598;-73
2022/10/16 04:13:13;;;;;;;;;8.33;8.33;;;;;18.22;73.08;99842.38;5067999;28;45321;-73
2022/10/16 04:15:38;;;;;;;;;9.67;8.67;;;;;18.28;72.20;99839.66;5059333;28;45492;-73
2022/10/16 04:18:05;;;;;;;;;10.33;9.33;;;;;18.36;72.19;99853.63;5072334;27;45406;-72
2022/10/16 04:20:31;;;;;;;;;8.67;7.67;;;;;18.29;72.39;99837.00;5079436;27;45492;-73
2022/10/16 04:22:56;;;;;;;;;8.33;8.33;;;;;17.99;72.63;99785.41;5071069;27;45451;-72
2022/10/16 04:25:22;;;;;;;;;7.67;7.00;;;;;18.37;72.60;99850.13;5056503;28;45492;-73
2022/10/16 04:27:47;;;;;;;;;6.00;6.00;;;;;18.34;71.54;99831.63;5056601;28;45621;-73
2022/10/16 04:30:13;;;;;;;;;6.00;6.00;;;;;18.44;71.50;99849.16;5056578;28;46443;-72
2022/10/16 04:32:39;;;;;;;;;6.67;6.00;;;;;18.36;71.43;99832.47;5069974;28;45808;-73
2022/10/16 04:35:07;;;;;;;;;7.00;6.00;;;;;18.46;70.83;99839.44;5092072;27;45422;-73
2022/10/16 04:37:32;;;;;;;;;5.67;5.33;;;;;18.46;70.27;99844.72;5056792;28;45207;-73
2022/10/16 04:39:58;;;;;;;;;5.00;5.00;;;;;18.41;70.40;99833.31;5056063;28;45480;-73
2022/10/16 04:42:24;;;;;;;;;8.67;7.33;;;;;18.47;71.05;99846.44;5071213;27;45643;-73
2022/10/16 04:44:49;;;;;;;;;4.67;4.67;;;;;18.42;70.81;99839.47;5071322;28;45308;-73
2022/10/16 04:47:15;;;;;;;;;4.67;4.67;;;;;18.42;70.55;99836.81;5057029;28;45339;-72
2022/10/16 04:49:40;;;;;;;;;7.00;6.00;;;;;18.41;70.41;99841.25;5056048;28;45444;-73
2022/10/16 04:52:06;;;;;;;;;6.33;5.33;;;;;18.44;70.68;99850.91;5056420;28;45462;-73
2022/10/16 04:54:31;;;;;;;;;7.00;6.67;;;;;18.46;70.74;99851.75;5056665;28;45446;-73
2022/10/16 04:56:57;;;;;;;;;9.67;9.33;;;;;18.36;70.57;99840.41;5057067;28;45569;-73
2022/10/16 04:59:23;;;;;;;;;6.67;6.67;;;;;18.35;70.20;99840.47;5056571;28;46262;-73
2022/10/16 05:01:49;;;;;;;;;9.00;8.67;;;;;18.52;70.22;99869.31;5088815;27;45389;-73
2022/10/16 05:04:15;;;;;;;;;10.33;9.67;;;;;18.28;70.16;99829.06;5056927;28;45603;-73
2022/10/16 05:06:41;;;;;;;;;9.33;9.33;;;;;18.52;70.11;99869.31;5069255;28;46151;-72
2022/10/16 05:09:07;;;;;;;;;6.67;6.00;;;;;18.43;69.40;99849.16;5074294;28;45626;-72
2022/10/16 05:11:33;;;;;;;;;5.00;4.67;;;;;18.56;67.93;99868.38;5070631;28;45656;-72
2022/10/16 05:13:59;;;;;;;;;7.67;6.33;;;;;18.63;68.40;99867.41;5076223;28;45439;-72
2022/10/16 05:16:25;;;;;;;;;6.33;6.33;;;;;18.57;68.53;99856.91;5074196;27;45484;-72
2022/10/16 05:18:53;;;;;;;;;7.00;6.67;;;;;18.65;67.56;99862.97;5072245;27;46141;-72
2022/10/16 05:21:20;;;;;;;;;7.00;6.00;;;;;18.69;67.44;99870.81;5075868;28;45462;-72
2022/10/16 05:23:46;;;;;;;;;6.67;6.67;;;;;18.63;66.60;99857.69;5068937;28;45533;-72
2022/10/16 05:26:11;;;;;;;;;6.00;6.00;;;;;18.67;67.41;99863.81;5073918;28;45391;-72
2022/10/16 05:28:37;;;;;;;;;7.00;6.00;;;;;18.64;67.79;99853.25;5072561;28;46218;-73
2022/10/16 05:31:06;;;;;;;;;7.00;5.67;;;;;18.71;67.22;99864.66;5082738;27;45550;-72
2022/10/16 05:33:33;;;;;;;;;5.00;4.67;;;;;18.72;67.28;99869.94;5075845;27;45488;-73
2022/10/16 05:36:07;;;;;;;;;6.00;6.00;;;;;18.78;67.00;99875.13;5080195;27;45487;-73
2022/10/16 05:38:36;;;;;;;;;6.00;6.00;;;;;18.81;66.51;99879.53;5084541;27;46132;-72
2022/10/16 05:41:02;;;;;;;;;7.67;6.67;;;;;18.78;66.42;99864.56;5084231;27;45380;-72
2022/10/16 05:43:30;;;;;;;;;8.67;8.00;;;;;18.82;66.28;99850.41;5084716;27;45520;-72
2022/10/16 05:46:01;;;;;;;;;8.33;7.67;;;;;18.96;66.02;99865.19;5084418;27;45609;-73
2022/10/16 05:48:27;;;;;;;;;7.00;6.67;;;;;18.92;66.31;99847.59;5084984;27;45962;-71
2022/10/16 05:51:03;;;;;;;;;8.67;7.67;;;;;19.08;65.67;99859.72;5079375;27;45491;-71
2022/10/16 05:53:31;;;;;;;;;6.00;5.67;;;;;19.18;64.34;99863.97;5082955;27;45347;-72
2022/10/16 05:55:58;;;;;;;;;7.67;7.00;;;;;19.18;64.61;99841.88;5103177;27;45670;-71
2022/10/16 05:58:24;;;;;;;;;7.00;6.33;;;;;19.29;63.59;99847.88;5085325;27;45551;-71
2022/10/16 06:00:58;;;;;;;;;8.33;7.33;;;;;19.22;63.51;99825.94;5084812;27;45619;-72
2022/10/16 06:03:24;;;;;;;;;7.67;7.00;;;;;19.34;63.56;99837.22;5087195;27;45481;-72
2022/10/16 06:05:51;;;;;;;;;6.67;6.00;;;;;19.46;63.41;99864.38;5087207;27;45423;-72
2022/10/16 06:08:17;;;;;;;;;8.00;6.67;;;;;19.32;64.56;99844.31;5088300;27;45437;-72
2022/10/16 06:10:43;;;;;;;;;7.00;6.67;;;;;19.24;65.10;99850.63;5087627;27;45483;-73
2022/10/16 06:13:09;;;;;;;;;6.33;6.00;;;;;19.19;65.87;99855.09;5086776;27;45663;-72
2022/10/16 06:15:35;;;;;;;;;5.33;5.33;;;;;19.12;66.49;99858.78;5088902;27;45678;-72
2022/10/16 06:18:00;;;;;;;;;9.00;8.33;;;;;19.00;66.69;99853.66;5084562;27;45475;-71
2022/10/16 06:20:26;;;;;;;;;4.67;4.00;;;;;18.94;67.27;99865.22;5078606;27;45874;-72
2022/10/16 06:22:51;;;;;;;;;10.33;10.00;;;;;18.88;67.75;99874.13;5058659;28;45491;-72
2022/10/16 06:25:17;;;;;;;;;6.00;6.00;;;;;18.78;68.46;99871.59;5058752;28;45493;-72
2022/10/16 06:27:42;;;;;;;;;8.67;8.67;;;;;18.59;68.72;99863.06;5070143;28;48053;-72
2022/10/16 06:30:08;;;;;;;;;11.00;8.33;;;;;18.56;68.09;99860.44;5061067;28;45440;-72
2022/10/16 06:32:34;;;;;;;;;7.00;6.67;;;;;18.55;68.07;99861.34;5059137;28;45451;-72
2022/10/16 06:34:59;;;;;;;;;10.33;10.00;;;;;18.69;67.41;99884.06;5058905;28;45572;-72
2022/10/16 06:37:26;;;;;;;;;8.00;6.00;;;;;18.66;67.49;99877.94;5058655;28;46214;-72
2022/10/16 06:39:54;;;;;;;;;7.00;7.00;;;;;18.65;67.19;99884.13;5071353;28;45516;-72
2022/10/16 06:42:20;;;;;;;;;7.00;7.00;;;;;18.71;67.02;99889.34;5065707;27;45419;-72
2022/10/16 06:44:45;;;;;;;;;7.00;6.67;;;;;18.79;66.67;99887.47;5058176;28;45465;-72
2022/10/16 06:47:11;;;;;;;;;11.00;7.00;;;;;18.97;66.03;99899.56;5060728;28;46160;-72
2022/10/16 06:49:37;;;;;;;;;8.33;7.00;;;;;18.99;66.31;99891.63;5086520;27;45542;-72
2022/10/16 06:52:02;;;;;;;;;8.67;8.33;;;;;19.05;66.05;99875.63;5057927;27;45454;-72
2022/10/16 06:54:28;;;;;;;;;13.00;12.00;;;;;19.14;65.95;99872.84;5058766;28;45476;-72
2022/10/16 06:56:54;;;;;;;;;11.67;11.00;;;;;19.31;66.05;99879.66;5057657;28;46461;-72
2022/10/16 06:59:20;;;;;;;;;19.67;19.00;;;;;19.33;66.43;99867.25;5087222;27;45503;-72
2022/10/16 07:01:46;;;;;;;;;12.67;11.67;;;;;19.41;66.19;99868.00;5059931;28;45374;-73
2022/10/16 07:04:11;;;;;;;;;14.00;13.00;;;;;19.42;66.42;99872.41;5070952;27;45449;-72
2022/10/16 07:06:37;;;;;;;;;12.00;11.00;;;;;19.50;66.76;99877.53;5075723;27;48118;-72
2022/10/16 07:09:05;;;;;;;;;8.00;8.00;;;;;19.54;66.54;99888.09;5061413;28;45399;-72
2022/10/16 07:11:31;;;;;;;;;5.33;5.00;;;;;19.58;66.38;99875.66;5065543;27;45433;-77
2022/10/16 07:13:57;;;;;;;;;8.00;8.00;;;;;19.74;66.36;99893.06;5057732;28;45423;-73
2022/10/16 07:16:25;;;;;;;;;11.00;9.33;;;;;19.92;65.77;99894.50;5072471;28;46661;-78
2022/10/16 07:18:57;;;;;;;;;9.67;9.67;;;;;19.97;65.81;99894.41;5063939;27;45597;-73
2022/10/16 07:21:25;;;;;;;;;10.00;8.00;;;;;20.03;65.19;99889.88;5057645;28;45536;-77
2022/10/16 07:23:52;;;;;;;;;11.00;9.33;;;;;20.13;65.04;99879.06;5080975;27;45315;-72
2022/10/16 07:26:17;;;;;;;;;10.67;10.33;;;;;20.32;65.03;99904.31;5088111;27;45616;-76
2022/10/16 07:28:43;;;;;;;;;10.33;10.33;;;;;20.37;64.93;99907.78;5084397;27;45883;-74
2022/10/16 07:31:11;;;;;;;;;8.00;6.33;;;;;20.35;65.31;99906.94;5081730;27;45564;-76
2022/10/16 07:33:38;;;;;;;;;9.00;9.00;;;;;20.35;64.79;99912.25;5077366;27;45423;-73
2022/10/16 07:36:04;;;;;;;;;8.67;8.00;;;;;20.38;65.36;99919.25;5077327;28;46156;-74
2022/10/16 07:38:30;;;;;;;;;8.00;7.00;;;;;20.39;64.96;99903.31;5077645;28;46085;-76
2022/10/16 07:41:00;;;;;;;;;10.33;10.33;;;;;21.99;63.42;99918.16;5085546;27;47010;-78
2022/10/16 07:43:27;;;;;;;;;10.67;8.00;;;;;25.27;53.68;99904.56;5059044;28;45401;-74
2022/10/16 07:45:53;;;;;;;;;10.00;8.33;;;;;27.67;49.15;99906.16;5056440;28;45727;-84
2022/10/16 07:48:20;;;;;;;;;7.00;7.00;;;;;29.37;44.14;99904.13;5061582;28;45432;-74
2022/10/16 07:50:45;;;;;;;;;9.33;9.33;;;;;30.94;41.88;99899.97;5070257;28;45479;-74
2022/10/16 07:53:11;;;;;;;;;7.00;7.00;;;;;32.12;38.37;99893.00;5075416;28;45746;-76
2022/10/16 07:55:37;;;;;;;;;9.33;9.00;;;;;33.22;37.12;99908.50;5077293;28;46647;-74
2022/10/16 07:58:04;;;;;;;;;9.67;9.33;;;;;34.15;34.58;99897.78;5077688;28;45492;-74
2022/10/16 08:00:29;;;;;;;;;10.00;9.00;;;;;34.62;34.54;99898.56;5076136;28;45312;-74
2022/10/16 08:02:59;;;;;;;;;8.33;7.33;;;;;34.59;34.60;99909.63;5077840;28;45275;-75
2022/10/16 08:05:29;;;;;;;;;9.00;8.67;;;;;34.14;34.72;99889.75;5041791;27;46467;-75
2022/10/16 08:07:55;;;;;;;;;9.33;9.33;;;;;34.32;34.02;99895.59;5051605;28;45236;-77
2022/10/16 08:10:23;;;;;;;;;10.00;9.00;;;;;34.12;35.24;99880.88;5034463;28;45534;-76
2022/10/16 08:12:48;;;;;;;;;9.33;8.67;;;;;34.65;34.98;99903.75;5033420;28;45564;-75
2022/10/16 08:15:14;;;;;;;;;9.00;7.00;;;;;35.38;33.84;99895.97;5031676;28;45975;-73
2022/10/16 08:17:40;;;;;;;;;11.33;10.00;;;;;36.09;31.68;99910.81;5031946;28;45390;-74
2022/10/16 08:20:06;;;;;;;;;8.67;8.67;;;;;36.19;30.17;99918.09;5033687;28;46502;-72
2022/10/16 08:22:31;;;;;;;;;9.33;9.33;;;;;34.90;33.49;99911.72;5032289;28;45762;-73
2022/10/16 08:24:57;;;;;;;;;8.00;7.67;;;;;34.17;31.34;99908.53;5031309;28;46995;-72
2022/10/16 08:27:22;;;;;;;;;7.00;6.00;;;;;34.19;31.81;99915.53;5033674;28;45592;-74
2022/10/16 08:29:51;;;;;;;;;8.33;8.33;;;;;33.98;31.49;99917.19;5033951;28;45466;-75
2022/10/16 08:32:16;;;;;;;;;7.33;7.00;;;;;34.75;30.07;99920.16;5047305;28;46134;-75
2022/10/16 08:34:42;;;;;;;;;9.00;8.00;;;;;34.92;31.16;99910.63;5027363;28;46968;-73
2022/10/16 08:37:11;;;;;;;;;8.33;7.67;;;;;35.64;30.17;99928.22;5023022;28;45425;-75
2022/10/16 08:39:36;;;;;;;;;8.67;8.00;;;;;35.42;32.23;99935.47;5049139;28;45467;-74
2022/10/16 08:42:14;;;;;;;;;8.00;8.00;;;;;33.92;34.45;99933.94;5047257;28;45600;-74
2022/10/16 08:44:58;;;;;;;;;9.67;9.33;;;;;33.42;36.16;99934.94;5034287;28;45623;-73
2022/10/16 08:47:32;;;;;;;;;8.33;7.67;;;;;32.78;35.88;99931.56;5034446;28;45540;-73
2022/10/16 08:50:13;;;;;;;;;8.67;7.00;;;;;31.94;35.92;99878.91;5034393;28;45514;-75
2022/10/16 08:52:43;;;;;;;;;8.67;8.00;;;;;31.93;36.77;99940.16;5018662;28;45399;-74
2022/10/16 08:55:21;;;;;;;;;13.67;13.00;;;;;31.68;38.42;99938.28;5033721;28;45653;-75
2022/10/16 08:57:47;;;;;;;;;9.00;8.00;;;;;31.42;38.81;99924.66;5024454;28;45447;-75
2022/10/16 09:00:14;;;;;;;;;7.00;7.00;;;;;31.32;39.40;99934.34;5027899;28;45756;-75
2022/10/16 09:03:12;;;;;;;;;8.67;8.00;;;;;31.57;38.09;99928.19;5018736;28;45374;-74
2022/10/16 09:05:58;;;;;;;;;8.67;7.67;;;;;31.81;37.79;99936.44;5024163;28;45744;-73
2022/10/16 09:08:48;;;;;;;;;8.00;8.00;;;;;31.42;38.30;99919.25;5034701;28;45325;-74
2022/10/16 09:11:35;;;;;;;;;6.67;6.67;;;;;31.62;36.45;99917.09;5021401;28;45563;-74
2022/10/16 09:14:17;;;;;;;;;7.00;7.00;;;;;32.20;37.29;99918.50;5021331;28;45515;-74
2022/10/16 09:17:00;;;;;;;;;8.00;8.00;;;;;32.34;37.36;99938.28;5013203;28;45662;-76
2022/10/16 09:19:34;;;;;;;;;9.33;8.67;;;;;32.29;36.56;99931.38;5015312;28;45477;-74
2022/10/16 09:22:13;;;;;;;;;11.33;9.00;;;;;31.98;36.69;99929.03;5014571;28;45371;-74
2022/10/16 09:24:39;;;;;;;;;9.33;7.67;;;;;31.32;37.83;99850.69;5045247;28;45729;-74
2022/10/16 09:27:16;;;;;;;;;6.67;6.33;;;;;31.33;35.98;99899.13;5035269;28;45521;-74
2022/10/16 09:29:41;;;;;;;;;7.67;7.33;;;;;31.01;35.80;99906.66;5021073;28;45487;-74
2022/10/16 09:32:20;;;;;;;;;8.67;8.67;;;;;30.96;36.99;99925.00;5035836;28;45881;-76
2022/10/16 09:34:56;;;;;;;;;8.67;8.33;;;;;30.73;36.59;99907.56;5034985;28;45369;-76
2022/10/16 09:37:25;;;;;;;;;12.00;10.67;;;;;30.69;37.44;99933.84;5036301;28;47706;-76
2022/10/16 09:39:53;;;;;;;;;9.00;8.33;;;;;30.61;37.63;99932.63;5028966;28;45437;-74
2022/10/16 09:42:22;;;;;;;;;9.33;9.33;;;;;30.28;37.61;99891.50;5037642;28;45361;-75
2022/10/16 09:44:53;;;;;;;;;10.00;8.67;;;;;30.36;37.84;99938.66;5037450;28;45490;-75
2022/10/16 09:47:23;;;;;;;;;7.00;7.00;;;;;30.31;37.94;99947.03;5034095;28;46217;-75
2022/10/16 09:50:05;;;;;;;;;7.67;7.67;;;;;30.11;38.25;99946.41;5052106;28;45461;-74
2022/10/16 09:52:32;;;;;;;;;7.33;7.33;;;;;29.92;37.87;99949.34;5034288;28;45423;-73
2022/10/16 09:55:12;;;;;;;;;7.33;7.33;;;;;29.73;38.12;99930.72;5038117;28;45429;-73
2022/10/16 09:57:50;;;;;;;;;6.33;5.67;;;;;29.73;38.54;99943.31;5023152;28;45367;-74
2022/10/16 10:00:18;;;;;;;;;8.00;8.00;;;;;29.76;39.49;99959.28;5035521;28;45576;-74
2022/10/16 10:02:44;;;;;;;;;10.67;9.00;;;;;29.60;39.31;99947.66;5023204;28;45450;-75
2022/10/16 10:05:39;;;;;;;;;7.33;7.00;;;;;29.66;39.85;99972.38;5035807;28;45644;-74
2022/10/16 10:08:05;;;;;;;;;9.33;7.33;;;;;29.21;39.51;99889.81;5035806;28;45683;-73
2022/10/16 10:10:34;;;;;;;;;7.00;7.00;;;;;29.98;39.75;99964.25;5022876;28;45637;-73
2022/10/16 10:13:00;;;;;;;;;6.00;6.00;;;;;30.36;39.49;99953.00;5018668;28;45323;-73
2022/10/16 10:15:32;;;;;;;;;8.67;8.67;;;;;30.93;38.28;99949.47;5025462;28;45490;-73
2022/10/16 10:17:58;;;;;;;;;9.67;9.00;;;;;31.07;36.13;99873.88;5028933;28;46309;-73
2022/10/16 10:20:27;;;;;;;;;9.33;8.33;;;;;32.08;35.26;99941.81;5028487;28;45820;-73
2022/10/16 10:22:56;;;;;;;;;8.00;8.00;;;;;32.41;35.09;99939.56;5027696;28;45567;-73
2022/10/16 10:25:29;;;;;;;;;8.00;8.00;;;;;32.44;34.91;99883.44;5032526;28;45760;-74
2022/10/16 10:28:20;;;;;;;;;12.33;11.33;;;;;33.16;34.67;99925.19;5026788;28;46454;-74
2022/10/16 10:31:04;;;;;;;;;7.33;7.33;;;;;33.65;33.05;99945.91;5029072;28;45484;-74
2022/10/16 10:33:49;;;;;;;;;7.00;7.00;;;;;33.81;30.66;99946.47;5025818;28;45444;-73
2022/10/16 10:36:26;;;;;;;;;7.67;6.00;;;;;33.73;31.17;99921.81;5050741;28;45650;-75
2022/10/16 10:38:57;;;;;;;;;11.00;9.33;;;;;33.99;29.38;99943.31;5036465;28;45486;-85
2022/10/16 10:41:29;;;;;;;;;6.00;6.00;;;;;33.81;28.28;99938.34;5034588;28;45332;-75
2022/10/16 10:44:03;;;;;;;;;6.00;6.00;;;;;33.69;30.91;99944.69;5018861;28;45468;-76
2022/10/16 10:46:50;;;;;;;;;9.67;9.00;;;;;33.43;31.25;99942.09;5021109;28;45436;-75
2022/10/16 10:49:27;;;;;;;;;7.00;6.00;;;;;33.19;32.00;99941.22;5027807;28;46051;-74
2022/10/16 10:52:06;;;;;;;;;5.00;5.00;;;;;32.86;31.53;99946.25;5018432;28;45174;-75
2022/10/16 10:54:41;;;;;;;;;7.00;6.00;;;;;32.52;31.64;99925.28;5033576;28;45751;-74
2022/10/16 10:57:18;;;;;;;;;8.33;6.00;;;;;32.41;30.40;99939.56;5020604;28;45574;-73
2022/10/16 10:59:57;;;;;;;;;5.67;5.33;;;;;32.12;31.85;99941.63;5027406;28;47593;-72
2022/10/16 11:02:31;;;;;;;;;7.33;7.33;;;;;32.02;32.67;99939.56;5018057;28;45511;-74
2022/10/16 11:05:18;;;;;;;;;8.33;7.33;;;;;32.15;32.62;99936.00;5033001;28;45379;-74
2022/10/16 11:08:21;;;;;;;;;7.00;5.67;;;;;32.35;30.16;99940.00;5038404;28;45625;-73
2022/10/16 11:10:56;;;;;;;;;11.00;10.00;;;;;32.44;29.93;99945.63;5019181;28;45447;-73
2022/10/16 11:13:42;;;;;;;;;7.00;6.00;;;;;32.46;28.78;99959.03;5029849;28;45438;-79
2022/10/16 11:16:30;;;;;;;;;7.67;7.00;;;;;32.27;29.88;99946.81;5022107;28;45491;-73
2022/10/16 11:19:14;;;;;;;;;6.00;6.00;;;;;32.09;28.84;99929.16;5032185;28;45491;-73
2022/10/16 11:21:53;;;;;;;;;6.00;6.00;;;;;32.02;28.86;99926.03;5023668;28;45430;-73
2022/10/16 11:24:36;;;;;;;;;8.00;8.00;;;;;32.06;29.47;99926.69;5036352;28;45586;-73
2022/10/16 11:27:08;;;;;;;;;6.67;6.33;;;;;32.12;29.91;99945.19;5033462;28;45524;-73
2022/10/16 11:29:43;;;;;;;;;6.00;6.00;;;;;31.96;28.78;99942.66;5018184;28;45530;-73
2022/10/16 11:32:35;;;;;;;;;7.00;5.00;;;;;31.68;28.67;99922.94;5032973;28;48173;-73
2022/10/16 11:35:19;;;;;;;;;5.33;5.00;;;;;31.54;28.32;99933.81;5017341;28;45803;-73
2022/10/16 11:37:49;;;;;;;;;8.00;8.00;;;;;31.17;29.25;99938.03;5017504;28;45378;-73
2022/10/16 11:40:31;;;;;;;;;6.67;6.33;;;;;30.90;29.39;99928.09;5018892;28;45305;-72
2022/10/16 11:43:26;;;;;;;;;6.00;5.33;;;;;30.78;29.86;99936.91;5028993;28;45581;-73
2022/10/16 11:45:55;;;;;;;;;5.00;5.00;;;;;30.72;30.45;99933.66;5001783;28;45712;-73